Time;durP1;ratioP1;P1;durP2;ratioP2;P2;SDS_P1;SDS_P2;PMS_P1;PMS_P2;Temp;Humidity;BMP_temperature;BMP_pressure;BME280_temperature;BME280_humidity;BME280_pressure;Samples;Min_cycle;Max_cycle;Signal;HPM_P1;HPM_P2
2023/05/29 00:01:45;;;;;;;29.50;26.23;;;17.50;99.90;;;;;;5249900;28;20384;-71
2023/05/29 00:04:16;;;;;;;29.50;26.38;;;17.40;99.90;;;;;;5250024;28;20150;-66
2023/05/29 00:06:47;;;;;;;31.00;26.50;;;17.40;99.90;;;;;;5249874;28;20043;-71
2023/05/29 00:09:18;;;;;;;33.90;26.65;;;17.40;99.90;;;;;;5248430;28;20081;-66
2023/05/29 00:11:52;;;;;;;28.50;25.35;;;17.50;99.90;;;;;;5249783;28;20024;-71
2023/05/29 00:14:23;;;;;;;28.85;25.67;;;17.50;99.90;;;;;;5249730;28;20044;-70
2023/05/29 00:16:54;;;;;;;29.35;25.05;;;17.50;99.90;;;;;;5249586;28;20104;-71
2023/05/29 00:19:25;;;;;;;28.92;26.00;;;17.50;99.90;;;;;;5249586;28;20108;-71
2023/05/29 00:21:56;;;;;;;28.98;25.95;;;17.40;99.90;;;;;;5248368;28;20066;-71
2023/05/29 00:24:27;;;;;;;30.42;27.40;;;17.50;99.90;;;;;;5249376;28;20025;-67
2023/05/29 00:26:57;;;;;;;29.02;25.67;;;17.50;99.90;;;;;;5249331;28;20040;-67
2023/05/29 00:29:28;;;;;;;29.08;26.08;;;17.50;99.90;;;;;;5249048;28;20037;-70
2023/05/29 00:31:59;;;;;;;29.25;25.30;;;17.50;99.90;;;;;;5249480;28;20046;-71
2023/05/29 00:34:30;;;;;;;29.95;26.70;;;17.50;99.90;;;;;;5249138;28;20403;-67
2023/05/29 00:37:02;;;;;;;29.17;26.02;;;17.40;99.90;;;;;;5249226;28;20029;-71
2023/05/29 00:39:33;;;;;;;29.10;25.95;;;17.40;99.90;;;;;;5249102;28;20024;-66
2023/05/29 00:42:04;;;;;;;29.27;25.95;;;17.40;99.90;;;;;;5249106;28;20094;-71
2023/05/29 00:44:36;;;;;;;32.45;25.80;;;17.40;99.90;;;;;;5249056;28;20067;-70
2023/05/29 00:47:07;;;;;;;29.02;26.13;;;17.40;99.90;;;;;;5249245;28;20048;-70
2023/05/29 00:49:38;;;;;;;28.45;25.67;;;17.40;99.90;;;;;;5249048;28;20102;-71
2023/05/29 00:52:10;;;;;;;26.65;23.98;;;17.50;99.90;;;;;;5248919;28;20021;-71
2023/05/29 00:54:44;;;;;;;28.70;25.45;;;17.40;99.90;;;;;;5249002;28;20050;-67
2023/05/29 00:57:17;;;;;;;29.83;24.33;;;17.40;99.90;;;;;;5248918;28;20017;-70
2023/05/29 00:59:48;;;;;;;30.40;26.60;;;17.30;99.90;;;;;;5248687;28;20034;-71
2023/05/29 01:02:20;;;;;;;31.05;27.83;;;17.40;99.90;;;;;;5248735;28;20063;-70
2023/05/29 01:04:54;;;;;;;29.98;26.90;;;17.30;99.90;;;;;;5248554;28;20060;-71
2023/05/29 01:07:25;;;;;;;29.45;26.35;;;17.30;99.90;;;;;;5248618;28;20028;-71
2023/05/29 01:09:56;;;;;;;30.67;26.83;;;17.30;99.90;;;;;;5248513;28;20064;-71
2023/05/29 01:13:11;;;;;;;32.33;27.33;;;17.30;99.90;;;;;;5248705;28;20468;-71
2023/05/29 01:16:04;;;;;;;31.38;26.63;;;17.30;99.90;;;;;;5224443;28;20043;-71
2023/05/29 01:18:57;;;;;;;31.83;28.58;;;17.30;99.90;;;;;;5248337;28;20035;-67
2023/05/29 01:21:46;;;;;;;31.73;25.38;;;17.30;99.90;;;;;;5248149;28;20033;-71
2023/05/29 01:24:41;;;;;;;27.33;24.45;;;17.30;99.90;;;;;;5248037;28;20043;-71
2023/05/29 01:27:15;;;;;;;27.80;24.20;;;17.30;99.90;;;;;;5248229;28;20040;-71
2023/05/29 01:29:47;;;;;;;29.63;26.73;;;17.30;99.90;;;;;;5247795;28;20056;-71
2023/05/29 01:32:18;;;;;;;26.58;24.10;;;17.20;99.90;;;;;;5247860;28;20028;-71
2023/05/29 01:34:49;;;;;;;27.75;24.70;;;17.20;99.90;;;;;;5248093;28;20538;-71
2023/05/29 01:37:20;;;;;;;25.17;22.63;;;17.20;99.90;;;;;;5247993;28;20078;-71
2023/05/29 01:39:51;;;;;;;24.98;22.38;;;17.20;99.90;;;;;;5247884;28;20373;-71
2023/05/29 01:42:22;;;;;;;24.13;21.52;;;17.20;99.90;;;;;;5247842;28;20056;-71
2023/05/29 01:44:55;;;;;;;24.88;22.33;;;17.30;99.90;;;;;;5247886;28;20369;-71
2023/05/29 01:47:27;;;;;;;24.58;21.83;;;17.20;99.90;;;;;;5247888;28;20556;-71
2023/05/29 01:49:58;;;;;;;26.77;23.98;;;17.10;99.90;;;;;;5247775;28;20087;-71
2023/05/29 01:52:29;;;;;;;27.35;24.50;;;17.20;99.90;;;;;;5247672;28;20074;-70
2023/05/29 01:55:00;;;;;;;28.98;25.80;;;17.20;99.90;;;;;;5247715;28;20032;-70
2023/05/29 01:57:31;;;;;;;31.27;28.45;;;17.30;99.90;;;;;;5247782;28;20017;-71
2023/05/29 02:00:08;;;;;;;29.65;26.48;;;17.20;99.90;;;;;;5247968;28;20081;-71
2023/05/29 02:02:40;;;;;;;31.27;28.13;;;17.20;99.90;;;;;;5247363;28;20742;-71
2023/05/29 02:05:11;;;;;;;32.00;28.92;;;17.20;99.90;;;;;;5247501;28;20032;-71
2023/05/29 02:07:42;;;;;;;30.00;27.00;;;17.20;99.90;;;;;;5247390;28;20029;-71
2023/05/29 02:10:12;;;;;;;31.45;28.20;;;17.20;99.90;;;;;;5247658;28;20028;-71
2023/05/29 02:12:43;;;;;;;30.85;27.38;;;17.30;99.90;;;;;;5246338;28;20024;-66
2023/05/29 02:15:14;;;;;;;31.73;28.23;;;17.30;99.90;;;;;;5247532;28;20028;-71
2023/05/29 02:17:46;;;;;;;31.88;27.10;;;17.20;99.90;;;;;;5247313;28;20024;-71
2023/05/29 02:20:17;;;;;;;33.42;30.27;;;17.20;99.90;;;;;;5247363;28;20028;-66
2023/05/29 02:22:48;;;;;;;32.22;29.05;;;17.20;99.90;;;;;;5247417;28;20393;-71
2023/05/29 02:25:19;;;;;;;33.80;30.60;;;17.20;99.90;;;;;;5247168;28;20040;-71
2023/05/29 02:27:50;;;;;;;33.38;29.33;;;17.20;99.90;;;;;;5247266;28;20032;-71
2023/05/29 02:30:21;;;;;;;33.58;29.98;;;17.20;99.90;;;;;;5247031;28;20396;-71
2023/05/29 02:32:52;;;;;;;33.10;28.02;;;17.20;99.90;;;;;;5247067;28;21147;-67
2023/05/29 02:35:23;;;;;;;30.55;26.58;;;17.20;99.90;;;;;;5247116;28;20028;-70
2023/05/29 02:37:53;;;;;;;28.40;25.38;;;17.20;99.90;;;;;;5247007;28;20039;-71
2023/05/29 02:40:24;;;;;;;31.67;25.17;;;17.20;99.90;;;;;;5247072;28;20029;-71
2023/05/29 02:42:55;;;;;;;28.90;25.58;;;17.20;99.90;;;;;;5247110;28;20025;-71
2023/05/29 02:45:26;;;;;;;29.70;24.00;;;17.20;99.90;;;;;;5250519;28;20494;-70
2023/05/29 02:47:57;;;;;;;26.83;23.80;;;17.20;99.90;;;;;;5251330;28;20498;-71
2023/05/29 02:50:28;;;;;;;28.23;24.90;;;17.20;99.90;;;;;;5251103;28;20067;-71
2023/05/29 02:52:58;;;;;;;25.83;22.85;;;17.20;99.90;;;;;;5249810;28;20025;-70
2023/05/29 02:55:32;;;;;;;25.52;22.10;;;17.10;99.90;;;;;;5251044;28;20048;-70
2023/05/29 02:58:02;;;;;;;26.50;22.17;;;17.10;99.90;;;;;;5251022;28;20031;-67
2023/05/29 03:00:34;;;;;;;23.10;20.27;;;17.10;99.90;;;;;;5250943;28;20024;-67
2023/05/29 03:03:05;;;;;;;24.05;21.67;;;16.90;99.90;;;;;;5251105;28;20147;-71
2023/05/29 03:05:36;;;;;;;22.55;20.20;;;16.90;99.90;;;;;;5250911;28;20060;-71
2023/05/29 03:08:07;;;;;;;24.02;20.67;;;16.90;99.90;;;;;;5250984;28;20150;-71
2023/05/29 03:10:38;;;;;;;24.17;21.60;;;16.80;99.90;;;;;;5250931;28;20024;-71
2023/05/29 03:13:09;;;;;;;30.35;21.10;;;16.80;99.90;;;;;;5251061;28;20484;-72
2023/05/29 03:15:40;;;;;;;24.50;20.52;;;16.80;99.90;;;;;;5250844;28;20025;-70
2023/05/29 03:18:11;;;;;;;23.38;19.85;;;16.80;99.90;;;;;;5250747;28;20028;-71
2023/05/29 03:20:42;;;;;;;24.60;20.60;;;16.80;99.90;;;;;;5250613;28;20511;-67
2023/05/29 03:23:13;;;;;;;27.83;21.48;;;16.80;99.90;;;;;;5250587;28;20062;-71
2023/05/29 03:25:44;;;;;;;25.13;22.52;;;16.90;99.90;;;;;;5250556;28;20120;-71
2023/05/29 03:28:15;;;;;;;26.77;22.67;;;16.90;99.90;;;;;;5250665;28;20032;-70
2023/05/29 03:30:46;;;;;;;27.10;21.45;;;16.90;99.90;;;;;;5250257;28;20128;-70
2023/05/29 03:33:17;;;;;;;25.77;22.98;;;16.90;99.90;;;;;;5250487;28;20107;-71
2023/05/29 03:35:48;;;;;;;27.40;24.55;;;16.90;99.90;;;;;;5250406;28;20016;-70
2023/05/29 03:38:18;;;;;;;28.23;25.17;;;16.90;99.90;;;;;;5250515;28;20024;-70
2023/05/29 03:40:49;;;;;;;25.98;23.20;;;16.90;99.90;;;;;;5250290;28;20036;-69
2023/05/29 03:43:20;;;;;;;30.00;24.58;;;16.90;99.90;;;;;;5250180;28;20025;-71
2023/05/29 03:45:51;;;;;;;27.45;24.50;;;16.90;99.90;;;;;;5250230;28;20431;-71
2023/05/29 03:48:22;;;;;;;28.45;25.50;;;17.00;99.90;;;;;;5250188;28;20020;-71
2023/05/29 03:50:52;;;;;;;33.45;28.45;;;17.00;99.90;;;;;;5250034;28;20031;-66
2023/05/29 03:53:23;;;;;;;33.85;28.42;;;17.00;99.90;;;;;;5250102;28;20027;-71
2023/05/29 03:55:54;;;;;;;29.85;26.25;;;17.10;99.90;;;;;;5249917;28;20096;-67
2023/05/29 03:58:25;;;;;;;30.05;26.85;;;17.10;99.90;;;;;;5249823;28;20060;-71
2023/05/29 04:00:56;;;;;;;31.77;28.38;;;17.10;99.90;;;;;;5249926;28;20415;-71
2023/05/29 04:03:28;;;;;;;30.98;27.50;;;17.10;99.90;;;;;;5249800;28;20491;-71
2023/05/29 04:05:59;;;;;;;30.77;27.65;;;17.20;99.90;;;;;;5249653;28;20033;-71
2023/05/29 04:08:30;;;;;;;33.17;29.95;;;17.10;99.90;;;;;;5249754;28;20371;-71
2023/05/29 04:11:03;;;;;;;32.28;28.90;;;17.10;99.90;;;;;;5249693;28;20032;-71
2023/05/29 04:13:34;;;;;;;32.85;29.58;;;17.20;99.90;;;;;;5249814;28;20027;-70
2023/05/29 04:16:05;;;;;;;35.53;31.55;;;17.20;99.90;;;;;;5249657;28;20028;-70
2023/05/29 04:18:36;;;;;;;30.45;27.55;;;17.10;99.90;;;;;;5249574;28;20499;-71
2023/05/29 04:21:07;;;;;;;30.88;27.63;;;17.10;99.90;;;;;;5249539;28;20024;-71
2023/05/29 04:23:38;;;;;;;31.33;27.92;;;17.10;99.90;;;;;;5249407;28;20034;-71
2023/05/29 04:26:08;;;;;;;32.70;29.20;;;17.20;99.90;;;;;;5249469;28;20389;-70
2023/05/29 04:28:40;;;;;;;31.15;28.02;;;17.10;99.90;;;;;;5249472;28;20111;-69
2023/05/29 04:31:14;;;;;;;31.77;28.70;;;17.20;99.90;;;;;;5249596;28;20052;-70
2023/05/29 04:33:45;;;;;;;32.00;28.70;;;17.20;99.90;;;;;;5249330;28;20032;-69
2023/05/29 04:36:16;;;;;;;29.83;26.85;;;17.20;99.90;;;;;;5249438;28;20021;-71
2023/05/29 04:38:47;;;;;;;30.80;26.35;;;17.30;99.90;;;;;;5247881;28;20056;-67
2023/05/29 04:41:18;;;;;;;31.20;27.98;;;17.20;99.90;;;;;;5249377;28;20052;-67
2023/05/29 04:43:52;;;;;;;30.30;27.05;;;17.20;99.90;;;;;;5249101;28;20063;-70
2023/05/29 04:46:24;;;;;;;29.95;26.75;;;17.20;99.90;;;;;;5249142;28;20028;-71
2023/05/29 04:48:56;;;;;;;33.60;26.70;;;17.30;99.90;;;;;;5249193;28;20142;-70
2023/05/29 04:51:28;;;;;;;28.90;25.50;;;17.30;99.90;;;;;;5248896;28;20028;-71
2023/05/29 04:53:59;;;;;;;29.63;26.48;;;17.20;99.90;;;;;;5248885;28;20012;-71
2023/05/29 04:56:30;;;;;;;28.80;25.80;;;17.20;99.90;;;;;;5248786;28;20090;-70
2023/05/29 04:59:00;;;;;;;29.10;25.80;;;17.20;99.90;;;;;;5248818;28;20016;-70
2023/05/29 05:01:33;;;;;;;31.58;26.27;;;17.20;99.90;;;;;;5248826;28;20036;-70
2023/05/29 05:04:04;;;;;;;29.05;25.90;;;17.20;99.90;;;;;;5247295;28;20012;-70
2023/05/29 05:06:35;;;;;;;31.75;26.75;;;17.20;99.90;;;;;;5248067;28;20435;-70
2023/05/29 05:09:06;;;;;;;32.53;25.55;;;17.20;99.90;;;;;;5248652;28;20024;-70
2023/05/29 05:11:37;;;;;;;29.15;26.08;;;17.20;99.90;;;;;;5248495;28;20020;-70
2023/05/29 05:14:07;;;;;;;31.77;26.35;;;17.20;99.90;;;;;;5247066;28;20094;-70
2023/05/29 05:16:38;;;;;;;25.88;23.17;;;17.30;99.90;;;;;;5248414;28;20028;-69
2023/05/29 05:19:09;;;;;;;25.52;22.60;;;17.20;99.90;;;;;;5248295;28;20036;-70
2023/05/29 05:21:40;;;;;;;25.58;22.92;;;17.20;99.90;;;;;;5246839;28;20476;-71
2023/05/29 05:24:11;;;;;;;26.17;23.42;;;17.20;99.90;;;;;;5248139;28;20146;-70
2023/05/29 05:26:42;;;;;;;27.90;25.00;;;17.20;99.90;;;;;;5248218;28;20030;-70
2023/05/29 05:29:13;;;;;;;30.20;26.25;;;17.20;99.90;;;;;;5247859;28;20032;-70
2023/05/29 05:31:45;;;;;;;30.75;27.35;;;17.30;99.90;;;;;;5248101;28;20032;-68
2023/05/29 05:34:16;;;;;;;31.88;28.42;;;17.40;99.90;;;;;;5246654;28;20033;-68
2023/05/29 05:36:46;;;;;;;50.60;45.35;;;17.30;99.90;;;;;;5247940;28;20072;-70
2023/05/29 05:39:17;;;;;;;37.65;33.65;;;17.40;99.90;;;;;;5247861;28;20035;-71
2023/05/29 05:41:48;;;;;;;30.83;27.50;;;17.40;99.90;;;;;;5248037;28;20024;-69
2023/05/29 05:44:19;;;;;;;33.78;28.80;;;17.40;99.90;;;;;;5247719;28;20028;-70
2023/05/29 05:46:50;;;;;;;38.53;34.30;;;17.40;99.90;;;;;;5248072;28;20391;-70
2023/05/29 05:49:21;;;;;;;34.17;30.55;;;17.40;99.90;;;;;;5247946;28;20025;-70
2023/05/29 05:51:51;;;;;;;40.53;36.40;;;17.40;99.90;;;;;;5247694;28;20031;-71
2023/05/29 05:54:22;;;;;;;59.50;53.22;;;17.40;99.90;;;;;;5247605;28;20095;-67
2023/05/29 05:56:53;;;;;;;39.70;35.55;;;17.40;99.90;;;;;;5247594;28;20029;-70
2023/05/29 05:59:24;;;;;;;40.88;36.95;;;17.50;99.90;;;;;;5247490;28;20028;-70
2023/05/29 06:01:55;;;;;;;34.35;30.80;;;17.60;99.90;;;;;;5247659;28;20040;-69
2023/05/29 06:04:26;;;;;;;33.17;29.58;;;17.60;99.90;;;;;;5247353;28;20107;-70
2023/05/29 06:06:56;;;;;;;35.15;31.50;;;17.60;99.90;;;;;;5247471;28;20500;-70
2023/05/29 06:09:27;;;;;;;34.80;31.23;;;17.70;99.90;;;;;;5247390;28;20099;-70
2023/05/29 06:11:58;;;;;;;35.55;31.58;;;17.70;99.90;;;;;;5247309;28;20041;-70
2023/05/29 06:14:29;;;;;;;34.85;31.20;;;17.80;99.90;;;;;;5247310;28;20044;-69
2023/05/29 06:17:00;;;;;;;34.08;30.85;;;17.70;99.90;;;;;;5247283;28;20059;-66
2023/05/29 06:19:31;;;;;;;34.78;31.33;;;17.90;99.90;;;;;;5246363;28;20046;-70
2023/05/29 06:22:02;;;;;;;33.53;29.85;;;17.90;99.90;;;;;;5247162;28;20048;-70
2023/05/29 06:24:33;;;;;;;32.13;28.70;;;17.90;99.90;;;;;;5247254;28;20561;-70
2023/05/29 06:27:04;;;;;;;34.60;29.10;;;17.80;99.90;;;;;;5247246;28;20025;-71
2023/05/29 06:29:36;;;;;;;31.63;28.30;;;17.80;99.90;;;;;;5247031;28;20169;-70
2023/05/29 06:32:06;;;;;;;33.72;30.00;;;17.70;99.90;;;;;;5247374;28;20090;-70
2023/05/29 06:34:37;;;;;;;36.47;32.65;;;17.80;99.90;;;;;;5247172;28;20020;-71
2023/05/29 06:37:09;;;;;;;34.75;31.23;;;17.80;99.90;;;;;;5247222;28;20020;-71
2023/05/29 06:39:41;;;;;;;37.17;33.42;;;17.90;99.90;;;;;;5247032;28;20016;-69
2023/05/29 06:42:12;;;;;;;33.60;30.00;;;17.80;99.90;;;;;;5247202;28;20146;-71
2023/05/29 06:44:43;;;;;;;35.45;31.67;;;17.90;99.90;;;;;;5247096;28;20046;-70
2023/05/29 06:47:14;;;;;;;32.95;29.63;;;17.90;99.90;;;;;;5247198;28;20108;-67
2023/05/29 06:49:45;;;;;;;36.83;32.90;;;18.00;99.90;;;;;;5247235;28;20044;-70
2023/05/29 06:52:16;;;;;;;36.15;32.78;;;18.00;99.90;;;;;;5247197;28;20404;-70
2023/05/29 06:54:46;;;;;;;35.15;31.80;;;18.00;99.90;;;;;;5247111;28;20352;-67
2023/05/29 06:57:17;;;;;;;34.10;30.77;;;18.00;99.90;;;;;;5246979;28;20024;-70
2023/05/29 06:59:48;;;;;;;34.08;30.77;;;18.10;99.90;;;;;;5246714;28;20527;-71
2023/05/29 07:02:19;;;;;;;32.45;29.10;;;18.20;99.90;;;;;;5246933;28;20032;-70
2023/05/29 07:04:50;;;;;;;30.88;27.92;;;18.20;99.90;;;;;;5246944;28;20036;-70
2023/05/29 07:07:21;;;;;;;29.95;27.35;;;18.10;99.90;;;;;;5246860;28;20439;-70
2023/05/29 07:09:52;;;;;;;29.00;26.30;;;18.20;99.90;;;;;;5246854;28;20031;-71
2023/05/29 07:12:23;;;;;;;28.98;26.15;;;18.20;99.90;;;;;;5246799;28;20013;-70
2023/05/29 07:14:54;;;;;;;30.67;27.77;;;18.30;99.90;;;;;;5246780;28;20373;-70
2023/05/29 07:17:25;;;;;;;29.13;26.33;;;18.50;99.90;;;;;;5246730;28;20028;-69
2023/05/29 07:19:56;;;;;;;28.23;25.30;;;18.40;99.90;;;;;;5246611;28;20020;-70
2023/05/29 07:22:27;;;;;;;27.25;24.65;;;18.50;99.90;;;;;;5246796;28;20027;-70
2023/05/29 07:24:58;;;;;;;27.05;24.35;;;18.60;99.90;;;;;;5246784;28;20036;-67
2023/05/29 07:27:28;;;;;;;26.70;24.00;;;18.80;99.90;;;;;;5246752;28;20060;-70
2023/05/29 07:29:59;;;;;;;26.92;24.17;;;18.80;99.90;;;;;;5247341;28;20055;-69
2023/05/29 07:32:30;;;;;;;25.42;23.05;;;18.80;99.90;;;;;;5250515;28;20051;-67
2023/05/29 07:35:01;;;;;;;24.95;22.70;;;18.60;99.90;;;;;;5250512;28;20024;-70
2023/05/29 07:37:32;;;;;;;30.50;22.60;;;18.80;99.90;;;;;;5250333;28;20036;-70
2023/05/29 07:40:05;;;;;;;27.50;25.00;;;19.00;99.90;;;;;;5250348;28;20034;-70
2023/05/29 07:42:36;;;;;;;22.50;20.40;;;19.00;99.90;;;;;;5250266;28;20161;-70
2023/05/29 07:45:07;;;;;;;24.73;22.25;;;19.20;99.90;;;;;;5249986;28;20107;-71
2023/05/29 07:47:38;;;;;;;24.10;21.73;;;19.20;99.90;;;;;;5250229;28;20039;-70
2023/05/29 07:50:10;;;;;;;25.23;22.77;;;19.10;99.90;;;;;;5248683;28;20554;-68
2023/05/29 07:52:43;;;;;;;26.23;23.75;;;19.00;99.90;;;;;;5250155;28;20033;-70
2023/05/29 07:55:14;;;;;;;29.15;26.45;;;19.00;99.90;;;;;;5250137;28;20021;-71
2023/05/29 07:57:46;;;;;;;33.30;30.13;;;19.00;99.90;;;;;;5250041;28;20028;-70
2023/05/29 08:00:17;;;;;;;40.00;35.38;;;19.00;99.90;;;;;;5250020;28;20024;-70
2023/05/29 08:02:48;;;;;;;33.97;30.92;;;19.00;99.90;;;;;;5250276;28;20020;-66
2023/05/29 08:05:20;;;;;;;31.67;28.85;;;19.00;99.90;;;;;;5249857;28;20599;-71
2023/05/29 08:07:51;;;;;;;31.63;29.30;;;19.10;99.90;;;;;;5250003;28;20016;-71
2023/05/29 08:10:21;;;;;;;33.70;30.83;;;19.20;99.90;;;;;;5249898;28;20027;-70
2023/05/29 08:12:52;;;;;;;32.55;29.75;;;19.40;99.90;;;;;;5249809;28;20025;-70
2023/05/29 08:15:24;;;;;;;30.73;28.05;;;19.20;99.90;;;;;;5249833;28;20116;-70
2023/05/29 08:17:55;;;;;;;33.40;30.80;;;19.20;99.90;;;;;;5249658;28;20074;-70
2023/05/29 08:20:25;;;;;;;40.47;37.00;;;19.30;99.90;;;;;;5249467;28;20661;-67
2023/05/29 08:22:56;;;;;;;35.17;32.33;;;19.50;99.90;;;;;;5249641;28;20012;-70
2023/05/29 08:25:27;;;;;;;38.20;35.30;;;19.70;99.90;;;;;;5249271;28;20037;-70
2023/05/29 08:27:58;;;;;;;37.92;35.28;;;19.70;99.90;;;;;;5249485;28;20047;-70
2023/05/29 08:30:29;;;;;;;39.78;36.88;;;19.60;99.90;;;;;;5247815;28;20055;-70
2023/05/29 08:32:59;;;;;;;40.22;36.97;;;19.60;99.90;;;;;;5249276;28;20499;-70
2023/05/29 08:35:30;;;;;;;40.42;37.33;;;19.50;99.90;;;;;;5249242;28;20020;-69
2023/05/29 08:38:01;;;;;;;39.30;36.17;;;19.50;99.90;;;;;;5249216;28;20095;-67
2023/05/29 08:40:32;;;;;;;37.53;34.55;;;19.30;99.90;;;;;;5249162;28;20471;-70
2023/05/29 08:43:16;;;;;;;38.47;35.35;;;19.10;99.90;;;;;;5248177;28;20433;-70
2023/05/29 08:45:51;;;;;;;37.03;34.28;;;19.40;99.90;;;;;;5249070;28;20036;-70
2023/05/29 08:48:25;;;;;;;32.67;30.13;;;19.70;99.90;;;;;;5249024;28;20377;-70
2023/05/29 08:50:57;;;;;;;32.30;29.73;;;19.90;99.90;;;;;;5248932;28;20446;-70
2023/05/29 08:53:28;;;;;;;34.17;31.77;;;20.20;99.90;;;;;;5248966;28;20028;-70
2023/05/29 08:56:01;;;;;;;27.83;25.52;;;20.30;99.90;;;;;;5248938;28;20085;-70
2023/05/29 08:58:33;;;;;;;27.10;25.13;;;20.40;99.90;;;;;;5248733;28;20029;-70
2023/05/29 09:01:04;;;;;;;23.33;21.00;;;20.30;99.90;;;;;;5248673;28;20028;-67
2023/05/29 09:03:37;;;;;;;27.02;24.95;;;20.30;99.90;;;;;;5248601;28;20032;-71
2023/05/29 09:06:08;;;;;;;29.38;26.73;;;20.30;99.90;;;;;;5248734;28;20036;-69
2023/05/29 09:08:39;;;;;;;32.70;30.17;;;20.50;99.90;;;;;;5248532;28;20028;-69
2023/05/29 09:11:10;;;;;;;31.45;28.85;;;20.50;99.90;;;;;;5248507;28;20364;-70
2023/05/29 09:13:41;;;;;;;30.58;28.08;;;20.50;99.90;;;;;;5248551;28;20020;-71
2023/05/29 09:16:12;;;;;;;29.25;26.95;;;20.70;99.90;;;;;;5248491;28;20032;-71
2023/05/29 09:18:45;;;;;;;25.80;23.80;;;20.50;99.90;;;;;;5248632;28;20033;-67
2023/05/29 09:21:36;;;;;;;26.15;23.90;;;20.50;99.90;;;;;;5248520;28;20020;-67
2023/05/29 09:24:07;;;;;;;25.38;23.48;;;20.20;99.90;;;;;;5248438;28;20055;-71
2023/05/29 09:26:38;;;;;;;24.80;22.58;;;20.10;99.90;;;;;;5248327;28;20043;-70
2023/05/29 09:29:10;;;;;;;27.02;24.42;;;19.90;99.90;;;;;;5248000;28;20492;-71
2023/05/29 09:31:49;;;;;;;27.05;24.50;;;20.10;99.90;;;;;;5248234;28;20021;-71
2023/05/29 09:34:24;;;;;;;26.90;24.63;;;20.10;99.90;;;;;;5248075;28;20032;-70
2023/05/29 09:37:07;;;;;;;27.90;25.65;;;20.20;99.90;;;;;;5248094;28;20021;-70
2023/05/29 09:39:41;;;;;;;29.52;27.25;;;20.10;99.90;;;;;;5247968;28;20028;-71
2023/05/29 09:42:13;;;;;;;26.73;24.73;;;20.20;99.90;;;;;;5248104;28;20056;-71
2023/05/29 09:44:53;;;;;;;23.85;22.13;;;20.20;99.90;;;;;;5247818;28;20024;-71
2023/05/29 09:47:24;;;;;;;25.35;23.35;;;20.40;99.90;;;;;;5247883;28;20035;-71
2023/05/29 09:49:55;;;;;;;27.25;25.45;;;20.60;99.90;;;;;;5247654;28;20103;-71
2023/05/29 09:52:30;;;;;;;27.98;25.58;;;20.80;99.90;;;;;;5247521;28;20025;-70
2023/05/29 09:55:02;;;;;;;27.17;24.88;;;20.90;99.90;;;;;;5247829;28;20023;-71
2023/05/29 09:57:33;;;;;;;26.67;24.38;;;20.60;99.90;;;;;;5247592;28;20033;-70
2023/05/29 10:00:12;;;;;;;26.13;24.02;;;20.30;99.90;;;;;;5247445;28;20028;-71
2023/05/29 10:02:43;;;;;;;25.67;23.85;;;20.30;99.90;;;;;;5247765;28;20024;-70
2023/05/29 10:05:18;;;;;;;24.40;22.40;;;20.20;99.90;;;;;;5247357;28;20391;-71
2023/05/29 10:07:53;;;;;;;24.35;22.02;;;20.10;99.90;;;;;;5247493;28;20142;-69
2023/05/29 10:10:26;;;;;;;22.52;20.83;;;20.00;99.90;;;;;;5246174;28;20017;-71
2023/05/29 10:12:58;;;;;;;25.23;23.05;;;20.00;99.90;;;;;;5247376;28;20024;-71
2023/05/29 10:15:30;;;;;;;23.02;20.98;;;20.00;99.90;;;;;;5247318;28;20017;-71
2023/05/29 10:18:11;;;;;;;24.95;23.05;;;20.10;99.90;;;;;;5247416;28;20067;-70
2023/05/29 10:20:44;;;;;;;22.40;20.50;;;20.20;99.90;;;;;;5247273;28;20020;-70
2023/05/29 10:23:15;;;;;;;22.35;20.48;;;20.00;99.90;;;;;;5247309;28;20024;-71
2023/05/29 10:25:49;;;;;;;22.30;20.45;;;20.10;99.90;;;;;;5247171;28;20047;-71
2023/05/29 10:28:22;;;;;;;23.13;21.33;;;20.20;99.90;;;;;;5247308;28;20086;-70
2023/05/29 10:31:01;;;;;;;25.55;23.20;;;20.40;99.90;;;;;;5247325;28;20110;-71
2023/05/29 10:33:53;;;;;;;23.20;21.48;;;20.40;99.90;;;;;;5247306;28;20096;-68
2023/05/29 10:36:28;;;;;;;24.90;22.98;;;20.50;99.90;;;;;;5247243;28;20093;-71
2023/05/29 10:38:59;;;;;;;23.83;22.00;;;20.30;99.90;;;;;;5247047;28;20021;-69
2023/05/29 10:41:32;;;;;;;27.80;25.05;;;20.30;99.90;;;;;;5247241;28;20044;-70
2023/05/29 10:44:23;;;;;;;23.55;21.35;;;20.50;99.90;;;;;;5246899;28;20030;-71
2023/05/29 10:47:01;;;;;;;23.05;21.25;;;20.10;99.90;;;;;;5246869;28;20039;-68
2023/05/29 10:49:32;;;;;;;20.00;18.25;;;19.70;99.90;;;;;;5246863;28;20029;-70
2023/05/29 10:52:05;;;;;;;22.15;20.20;;;19.40;99.90;;;;;;5247133;28;20345;-71
2023/05/29 10:54:52;;;;;;;20.67;18.88;;;19.50;99.90;;;;;;5246970;28;20024;-71
2023/05/29 10:57:24;;;;;;;21.85;19.73;;;19.50;99.90;;;;;;5246988;28;20468;-71
2023/05/29 11:00:18;;;;;;;21.38;19.55;;;19.60;99.90;;;;;;5246763;28;20032;-71
2023/05/29 11:02:52;;;;;;;20.33;18.42;;;19.50;99.90;;;;;;5246928;28;20025;-71
2023/05/29 11:05:24;;;;;;;21.10;18.95;;;19.30;99.90;;;;;;5248433;28;20033;-71
2023/05/29 11:08:00;;;;;;;21.38;19.60;;;19.20;99.90;;;;;;5249805;28;20495;-71
2023/05/29 11:10:51;;;;;;;22.83;20.92;;;19.10;99.90;;;;;;5250953;28;20369;-70
2023/05/29 11:13:37;;;;;;;21.33;19.38;;;19.10;99.90;;;;;;5250794;28;20100;-67
2023/05/29 11:16:33;;;;;;;22.85;20.90;;;19.00;99.90;;;;;;5250834;28;20421;-70
2023/05/29 11:19:11;;;;;;;23.95;21.80;;;19.20;99.90;;;;;;5249361;28;20060;-70
2023/05/29 11:22:09;;;;;;;23.75;21.65;;;19.10;99.90;;;;;;5250747;28;20031;-67
2023/05/29 11:24:41;;;;;;;24.42;22.27;;;19.10;99.90;;;;;;5250518;28;20035;-71
2023/05/29 11:27:12;;;;;;;21.75;19.58;;;19.00;99.90;;;;;;5250550;28;20024;-71
2023/05/29 11:29:44;;;;;;;24.30;21.77;;;18.90;99.90;;;;;;5250421;28;20381;-70
2023/05/29 11:32:17;;;;;;;23.77;21.58;;;18.80;99.90;;;;;;5249098;28;20029;-70
2023/05/29 11:34:49;;;;;;;26.52;24.13;;;18.80;99.90;;;;;;5250310;28;20013;-71
2023/05/29 11:37:20;;;;;;;27.77;24.90;;;18.70;99.90;;;;;;5250436;28;20025;-70
2023/05/29 11:39:51;;;;;;;27.38;24.88;;;18.70;99.90;;;;;;5250292;28;20021;-70
2023/05/29 11:42:22;;;;;;;27.85;25.25;;;18.70;99.90;;;;;;5250494;28;20444;-69
2023/05/29 11:44:53;;;;;;;25.52;22.80;;;18.80;99.90;;;;;;5250422;28;20032;-71
2023/05/29 11:47:24;;;;;;;30.67;25.25;;;18.80;99.90;;;;;;5250348;28;20035;-68
2023/05/29 11:49:54;;;;;;;27.75;23.55;;;19.00;99.90;;;;;;5250179;28;20008;-70
2023/05/29 11:52:25;;;;;;;26.83;23.98;;;18.90;99.90;;;;;;5250268;28;20052;-70
2023/05/29 11:55:06;;;;;;;30.55;24.02;;;18.90;99.90;;;;;;5250125;28;20020;-71
2023/05/29 11:57:37;;;;;;;25.88;23.30;;;19.00;99.90;;;;;;5250012;28;20033;-71
2023/05/29 12:00:12;;;;;;;29.73;24.17;;;19.00;99.90;;;;;;5249908;28;20012;-71
2023/05/29 12:02:46;;;;;;;31.60;24.60;;;19.20;99.90;;;;;;5250119;28;20480;-71
2023/05/29 12:05:19;;;;;;;30.85;24.45;;;19.20;99.90;;;;;;5249907;28;20029;-70
2023/05/29 12:07:57;;;;;;;28.35;25.50;;;19.10;99.90;;;;;;5250027;28;20036;-71
2023/05/29 12:10:29;;;;;;;28.40;25.70;;;19.00;99.90;;;;;;5249898;28;20048;-71
2023/05/29 12:13:03;;;;;;;28.77;23.92;;;18.90;99.90;;;;;;5249718;28;20063;-71
2023/05/29 12:15:34;;;;;;;31.48;27.67;;;19.00;99.90;;;;;;5249542;28;20129;-71
2023/05/29 12:18:04;;;;;;;31.23;25.95;;;18.90;99.90;;;;;;5248621;28;20058;-70
2023/05/29 12:20:35;;;;;;;30.75;25.08;;;18.80;99.90;;;;;;5249568;28;20543;-71
2023/05/29 12:23:06;;;;;;;32.67;28.23;;;18.80;99.90;;;;;;5249497;28;20355;-67
2023/05/29 12:25:37;;;;;;;28.55;23.20;;;18.80;99.90;;;;;;5249319;28;20036;-71
2023/05/29 12:28:12;;;;;;;28.35;25.17;;;18.70;99.90;;;;;;5249431;28;20499;-67
2023/05/29 12:30:43;;;;;;;29.15;22.10;;;18.80;99.90;;;;;;5249186;28;20056;-71
2023/05/29 12:33:28;;;;;;;28.85;22.48;;;18.80;99.90;;;;;;5249337;28;20024;-70
2023/05/29 12:36:06;;;;;;;29.27;23.27;;;18.80;99.90;;;;;;5249426;28;20028;-70
2023/05/29 12:38:52;;;;;;;26.10;23.33;;;18.80;99.90;;;;;;5249188;28;20024;-71
2023/05/29 12:41:33;;;;;;;30.30;25.88;;;18.70;99.90;;;;;;5249135;28;20048;-71
2023/05/29 12:44:05;;;;;;;32.28;26.45;;;18.70;99.90;;;;;;5249144;28;20031;-70
2023/05/29 12:46:39;;;;;;;30.73;26.63;;;18.60;99.90;;;;;;5249079;28;20037;-67
2023/05/29 12:49:23;;;;;;;33.17;26.70;;;18.80;99.90;;;;;;5248900;28;20028;-70
2023/05/29 12:51:54;;;;;;;33.47;28.08;;;18.60;99.90;;;;;;5248844;28;20031;-71
2023/05/29 12:54:25;;;;;;;40.28;30.83;;;18.60;99.90;;;;;;5248830;28;20025;-70
2023/05/29 12:56:56;;;;;;;36.03;31.55;;;18.60;99.90;;;;;;5248773;28;20055;-71